Terminal Aerodrome Forecast
Issued by NWS

Home | Current Version | Previous Version | Graphics & Text | Print | Product List | Glossary Off
Versions: 1 2 3 4 5 6 7 8 9 10 11 12 13 14 15 16 17 18 19 20 21 22 23 24 25 26 27 28 29 30 31

000
FTUS43 KDDC 260905 AAB
TAFGCK
TAF AMD
KGCK 260905Z 2609/2706 10009KT 4SM BR SCT005
      TEMPO 2609/2612 1 1/2SM BR OVC002
     FM261400 18017KT P6SM SKC
     FM261600 18020G30KT P6SM SKC=

USA.gov is the U.S. government's official web portal to all federal, state and local government web resources and services.